sensor_id;sensor_type;location;lat;lon;timestamp;pressure;altitude;pressure_sealevel;temperature;humidity
71970;BME280;59838;52.152;5.436;2023-05-22T00:00:16;101701.63;;;15.46;100.00
71970;BME280;59838;52.152;5.436;2023-05-22T00:02:43;101698.19;;;15.46;100.00
71970;BME280;59838;52.152;5.436;2023-05-22T00:05:13;101697.41;;;15.45;100.00
71970;BME280;59838;52.152;5.436;2023-05-22T00:07:40;101686.94;;;15.45;100.00
71970;BME280;59838;52.152;5.436;2023-05-22T00:10:11;101685.50;;;15.43;100.00
71970;BME280;59838;52.152;5.436;2023-05-22T00:12:38;101686.28;;;15.43;100.00
71970;BME280;59838;52.152;5.436;2023-05-22T00:15:05;101677.81;;;15.41;100.00
71970;BME280;59838;52.152;5.436;2023-05-22T00:17:32;101676.19;;;15.40;100.00
71970;BME280;59838;52.152;5.436;2023-05-22T00:19:59;101679.47;;;15.42;100.00
71970;BME280;59838;52.152;5.436;2023-05-22T00:22:36;101681.06;;;15.43;100.00
71970;BME280;59838;52.152;5.436;2023-05-22T00:25:03;101674.59;;;15.39;100.00
71970;BME280;59838;52.152;5.436;2023-05-22T00:27:31;101672.38;;;15.36;100.00
71970;BME280;59838;52.152;5.436;2023-05-22T00:29:58;101668.13;;;15.35;100.00
71970;BME280;59838;52.152;5.436;2023-05-22T00:32:25;101662.47;;;15.31;100.00
71970;BME280;59838;52.152;5.436;2023-05-22T00:34:52;101664.28;;;15.31;100.00
71970;BME280;59838;52.152;5.436;2023-05-22T00:37:19;101669.72;;;15.29;100.00
71970;BME280;59838;52.152;5.436;2023-05-22T00:39:45;101671.31;;;15.30;100.00
71970;BME280;59838;52.152;5.436;2023-05-22T00:42:12;101676.34;;;15.32;100.00
71970;BME280;59838;52.152;5.436;2023-05-22T00:44:39;101674.38;;;15.34;100.00
71970;BME280;59838;52.152;5.436;2023-05-22T00:47:07;101657.66;;;15.35;100.00
71970;BME280;59838;52.152;5.436;2023-05-22T00:49:33;101657.44;;;15.30;100.00
71970;BME280;59838;52.152;5.436;2023-05-22T00:52:00;101647.13;;;15.22;100.00
71970;BME280;59838;52.152;5.436;2023-05-22T00:54:27;101637.81;;;15.19;100.00
71970;BME280;59838;52.152;5.436;2023-05-22T00:56:54;101650.13;;;15.18;100.00
71970;BME280;59838;52.152;5.436;2023-05-22T00:59:22;101645.47;;;15.14;100.00
71970;BME280;59838;52.152;5.436;2023-05-22T01:01:49;101642.03;;;15.13;100.00
71970;BME280;59838;52.152;5.436;2023-05-22T01:04:16;101639.44;;;15.13;100.00
71970;BME280;59838;52.152;5.436;2023-05-22T01:06:43;101636.00;;;15.13;100.00
71970;BME280;59838;52.152;5.436;2023-05-22T01:09:13;101629.75;;;15.14;100.00
71970;BME280;59838;52.152;5.436;2023-05-22T01:11:53;101628.16;;;15.13;100.00
71970;BME280;59838;52.152;5.436;2023-05-22T01:14:42;101632.16;;;15.09;100.00
71970;BME280;59838;52.152;5.436;2023-05-22T01:17:40;101632.72;;;15.04;100.00
71970;BME280;59838;52.152;5.436;2023-05-22T01:31:05;101608.44;;;14.82;100.00
71970;BME280;59838;52.152;5.436;2023-05-22T01:33:40;101612.66;;;14.83;100.00
71970;BME280;59838;52.152;5.436;2023-05-22T01:36:11;101616.31;;;14.82;100.00
71970;BME280;59838;52.152;5.436;2023-05-22T01:38:41;101606.44;;;14.84;100.00
71970;BME280;59838;52.152;5.436;2023-05-22T01:41:08;101608.22;;;14.84;100.00
71970;BME280;59838;52.152;5.436;2023-05-22T01:43:35;101610.63;;;14.78;100.00
71970;BME280;59838;52.152;5.436;2023-05-22T01:46:01;101607.41;;;14.76;100.00
71970;BME280;59838;52.152;5.436;2023-05-22T01:48:28;101608.19;;;14.77;100.00
71970;BME280;59838;52.152;5.436;2023-05-22T01:50:55;101603.34;;;14.74;100.00
71970;BME280;59838;52.152;5.436;2023-05-22T01:53:32;101611.38;;;14.72;100.00
71970;BME280;59838;52.152;5.436;2023-05-22T01:56:22;101594.09;;;14.71;100.00
71970;BME280;59838;52.152;5.436;2023-05-22T01:59:03;101596.09;;;14.69;100.00
71970;BME280;59838;52.152;5.436;2023-05-22T02:01:35;101584.19;;;14.67;100.00
71970;BME280;59838;52.152;5.436;2023-05-22T02:04:03;101577.09;;;14.60;100.00
71970;BME280;59838;52.152;5.436;2023-05-22T02:06:32;101581.69;;;14.58;100.00
71970;BME280;59838;52.152;5.436;2023-05-22T02:09:00;101585.69;;;14.54;100.00
71970;BME280;59838;52.152;5.436;2023-05-22T02:11:30;101577.41;;;14.51;100.00
71970;BME280;59838;52.152;5.436;2023-05-22T02:13:57;101578.44;;;14.50;100.00
71970;BME280;59838;52.152;5.436;2023-05-22T02:16:24;101580.59;;;14.46;100.00
71970;BME280;59838;52.152;5.436;2023-05-22T02:18:57;101572.31;;;14.42;100.00
71970;BME280;59838;52.152;5.436;2023-05-22T02:21:28;101579.94;;;14.37;100.00
71970;BME280;59838;52.152;5.436;2023-05-22T02:23:54;101581.94;;;14.35;100.00
71970;BME280;59838;52.152;5.436;2023-05-22T02:26:21;101574.66;;;14.31;100.00
71970;BME280;59838;52.152;5.436;2023-05-22T02:28:48;101579.69;;;14.32;100.00
71970;BME280;59838;52.152;5.436;2023-05-22T02:31:14;101581.66;;;14.30;100.00
71970;BME280;59838;52.152;5.436;2023-05-22T02:33:43;101572.22;;;14.29;100.00
71970;BME280;59838;52.152;5.436;2023-05-22T02:36:10;101567.00;;;14.29;100.00
71970;BME280;59838;52.152;5.436;2023-05-22T02:38:38;101570.84;;;14.33;100.00
71970;BME280;59838;52.152;5.436;2023-05-22T02:41:06;101575.88;;;14.35;100.00
71970;BME280;59838;52.152;5.436;2023-05-22T02:43:33;101567.84;;;14.36;100.00
71970;BME280;59838;52.152;5.436;2023-05-22T02:45:59;101566.84;;;14.37;100.00
71970;BME280;59838;52.152;5.436;2023-05-22T02:48:26;101561.03;;;14.35;100.00
71970;BME280;59838;52.152;5.436;2023-05-22T02:50:54;101567.66;;;14.38;100.00
71970;BME280;59838;52.152;5.436;2023-05-22T02:53:21;101560.06;;;14.43;100.00
71970;BME280;59838;52.152;5.436;2023-05-22T02:55:47;101559.88;;;14.44;100.00
71970;BME280;59838;52.152;5.436;2023-05-22T02:58:14;101558.50;;;14.49;100.00
71970;BME280;59838;52.152;5.436;2023-05-22T03:00:41;101558.50;;;14.49;100.00
71970;BME280;59838;52.152;5.436;2023-05-22T03:03:08;101561.72;;;14.51;100.00
71970;BME280;59838;52.152;5.436;2023-05-22T03:05:36;101553.09;;;14.50;100.00
71970;BME280;59838;52.152;5.436;2023-05-22T03:08:02;101548.84;;;14.49;100.00
71970;BME280;59838;52.152;5.436;2023-05-22T03:10:29;101555.09;;;14.48;100.00
71970;BME280;59838;52.152;5.436;2023-05-22T03:12:56;101557.50;;;14.50;100.00
71970;BME280;59838;52.152;5.436;2023-05-22T03:15:22;101556.06;;;14.47;100.00
71970;BME280;59838;52.152;5.436;2023-05-22T03:17:49;101551.84;;;14.46;100.00
71970;BME280;59838;52.152;5.436;2023-05-22T03:20:15;101554.44;;;14.46;100.00
71970;BME280;59838;52.152;5.436;2023-05-22T03:22:43;101554.91;;;14.50;100.00
71970;BME280;59838;52.152;5.436;2023-05-22T03:25:09;101558.13;;;14.52;100.00
71970;BME280;59838;52.152;5.436;2023-05-22T03:27:38;101553.88;;;14.51;100.00
71970;BME280;59838;52.152;5.436;2023-05-22T03:30:07;101560.53;;;14.53;100.00
71970;BME280;59838;52.152;5.436;2023-05-22T03:32:33;101557.09;;;14.53;100.00
71970;BME280;59838;52.152;5.436;2023-05-22T03:35:04;101552.69;;;14.53;100.00
71970;BME280;59838;52.152;5.436;2023-05-22T03:37:31;101555.88;;;14.49;100.00
71970;BME280;59838;52.152;5.436;2023-05-22T03:39:57;101566.53;;;14.47;100.00
71970;BME280;59838;52.152;5.436;2023-05-22T03:42:24;101566.53;;;14.47;100.00
71970;BME280;59838;52.152;5.436;2023-05-22T03:44:50;101563.72;;;14.49;100.00
71970;BME280;59838;52.152;5.436;2023-05-22T03:47:17;101558.13;;;14.52;100.00
71970;BME280;59838;52.152;5.436;2023-05-22T03:49:43;101561.72;;;14.51;100.00
71970;BME280;59838;52.152;5.436;2023-05-22T03:52:10;101563.34;;;14.52;100.00
71970;BME280;59838;52.152;5.436;2023-05-22T03:54:36;101558.72;;;14.54;100.00
71970;BME280;59838;52.152;5.436;2023-05-22T03:57:03;101564.56;;;14.56;100.00
71970;BME280;59838;52.152;5.436;2023-05-22T03:59:33;101551.69;;;14.54;100.00
71970;BME280;59838;52.152;5.436;2023-05-22T04:01:59;101564.94;;;14.53;100.00
71970;BME280;59838;52.152;5.436;2023-05-22T04:04:27;101561.34;;;14.54;100.00
71970;BME280;59838;52.152;5.436;2023-05-22T04:06:53;101560.75;;;14.52;100.00
71970;BME280;59838;52.152;5.436;2023-05-22T04:09:25;101556.06;;;14.47;100.00
71970;BME280;59838;52.152;5.436;2023-05-22T04:11:52;101555.09;;;14.48;100.00
71970;BME280;59838;52.152;5.436;2023-05-22T04:14:19;101550.66;;;14.49;100.00
71970;BME280;59838;52.152;5.436;2023-05-22T04:16:45;101555.28;;;14.47;100.00
71970;BME280;59838;52.152;5.436;2023-05-22T04:19:15;101555.47;;;14.45;100.00
71970;BME280;59838;52.152;5.436;2023-05-22T04:21:43;101557.69;;;14.48;100.00
71970;BME280;59838;52.152;5.436;2023-05-22T04:24:10;101571.56;;;14.49;100.00
71970;BME280;59838;52.152;5.436;2023-05-22T04:26:37;101564.53;;;14.49;100.00
71970;BME280;59838;52.152;5.436;2023-05-22T04:29:07;101576.78;;;14.49;100.00
71970;BME280;59838;52.152;5.436;2023-05-22T04:31:39;101589.13;;;14.55;100.00
71970;BME280;59838;52.152;5.436;2023-05-22T04:34:06;101589.53;;;14.58;100.00
71970;BME280;59838;52.152;5.436;2023-05-22T04:36:32;101593.63;;;14.61;100.00
71970;BME280;59838;52.152;5.436;2023-05-22T04:38:59;101598.84;;;14.61;100.00
71970;BME280;59838;52.152;5.436;2023-05-22T04:41:30;101598.63;;;14.62;100.00
71970;BME280;59838;52.152;5.436;2023-05-22T04:43:57;101604.50;;;14.65;100.00
71970;BME280;59838;52.152;5.436;2023-05-22T04:46:25;101605.88;;;14.60;100.00
71970;BME280;59838;52.152;5.436;2023-05-22T04:48:53;101607.72;;;14.67;100.00
71970;BME280;59838;52.152;5.436;2023-05-22T04:51:20;101615.56;;;14.67;100.00
71970;BME280;59838;52.152;5.436;2023-05-22T04:53:48;101614.97;;;14.65;100.00
71970;BME280;59838;52.152;5.436;2023-05-22T04:56:15;101617.81;;;14.70;100.00
71970;BME280;59838;52.152;5.436;2023-05-22T04:58:57;101621.47;;;14.75;100.00
71970;BME280;59838;52.152;5.436;2023-05-22T05:01:25;101620.69;;;14.81;100.00
71970;BME280;59838;52.152;5.436;2023-05-22T05:03:53;101620.56;;;14.90;100.00
71970;BME280;59838;52.152;5.436;2023-05-22T05:06:19;101619.00;;;14.95;100.00
71970;BME280;59838;52.152;5.436;2023-05-22T05:08:46;101619.22;;;15.01;100.00
71970;BME280;59838;52.152;5.436;2023-05-22T05:11:14;101622.25;;;15.04;100.00
71970;BME280;59838;52.152;5.436;2023-05-22T05:13:41;101609.00;;;15.12;100.00
71970;BME280;59838;52.152;5.436;2023-05-22T05:16:08;101618.31;;;15.22;100.00
71970;BME280;59838;52.152;5.436;2023-05-22T05:18:35;101615.38;;;15.38;100.00
71970;BME280;59838;52.152;5.436;2023-05-22T05:21:01;101620.25;;;15.48;100.00
71970;BME280;59838;52.152;5.436;2023-05-22T05:23:28;101605.34;;;16.10;100.00
71970;BME280;59838;52.152;5.436;2023-05-22T05:25:54;101601.41;;;17.06;100.00
71970;BME280;59838;52.152;5.436;2023-05-22T05:28:21;101602.81;;;18.24;100.00
71970;BME280;59838;52.152;5.436;2023-05-22T05:30:47;101603.47;;;19.07;95.75
71970;BME280;59838;52.152;5.436;2023-05-22T05:33:14;101606.25;;;19.91;89.62
71970;BME280;59838;52.152;5.436;2023-05-22T05:35:41;101598.63;;;20.73;84.29
71970;BME280;59838;52.152;5.436;2023-05-22T05:38:08;101586.41;;;21.65;78.56
71970;BME280;59838;52.152;5.436;2023-05-22T05:40:35;101595.72;;;22.18;76.17
71970;BME280;59838;52.152;5.436;2023-05-22T05:43:01;101594.81;;;22.46;73.79
71970;BME280;59838;52.152;5.436;2023-05-22T05:45:28;101583.38;;;23.02;71.67
71970;BME280;59838;52.152;5.436;2023-05-22T05:47:55;101594.81;;;23.57;68.70
71970;BME280;59838;52.152;5.436;2023-05-22T05:50:22;101592.97;;;23.58;67.00
71970;BME280;59838;52.152;5.436;2023-05-22T05:52:48;101603.03;;;23.55;67.75
71970;BME280;59838;52.152;5.436;2023-05-22T05:55:15;101594.31;;;24.25;65.18
71970;BME280;59838;52.152;5.436;2023-05-22T05:57:42;101580.78;;;24.79;63.44
71970;BME280;59838;52.152;5.436;2023-05-22T06:00:09;101579.59;;;25.18;61.73
71970;BME280;59838;52.152;5.436;2023-05-22T06:02:37;101588.44;;;25.39;61.20
71970;BME280;59838;52.152;5.436;2023-05-22T06:05:04;101589.78;;;25.62;60.84
71970;BME280;59838;52.152;5.436;2023-05-22T06:07:30;101588.44;;;25.75;60.22
71970;BME280;59838;52.152;5.436;2023-05-22T06:09:57;101581.78;;;26.14;58.42
71970;BME280;59838;52.152;5.436;2023-05-22T06:12:24;101580.91;;;26.49;57.79
71970;BME280;59838;52.152;5.436;2023-05-22T06:14:50;101582.50;;;26.50;56.21
71970;BME280;59838;52.152;5.436;2023-05-22T06:17:17;101588.84;;;26.70;57.04
71970;BME280;59838;52.152;5.436;2023-05-22T06:19:43;101594.47;;;26.68;56.70
71970;BME280;59838;52.152;5.436;2023-05-22T06:22:09;101591.91;;;26.01;59.46
71970;BME280;59838;52.152;5.436;2023-05-22T06:24:36;101584.56;;;26.63;59.18
71970;BME280;59838;52.152;5.436;2023-05-22T06:27:02;101583.59;;;26.34;57.13
71970;BME280;59838;52.152;5.436;2023-05-22T06:29:29;101598.53;;;25.32;60.80
71970;BME280;59838;52.152;5.436;2023-05-22T06:31:56;101595.13;;;25.98;59.70
71970;BME280;59838;52.152;5.436;2023-05-22T06:34:22;101594.34;;;26.94;57.37
71970;BME280;59838;52.152;5.436;2023-05-22T06:36:50;101596.44;;;27.47;55.78
71970;BME280;59838;52.152;5.436;2023-05-22T06:39:17;101604.44;;;27.81;53.32
71970;BME280;59838;52.152;5.436;2023-05-22T06:41:44;101608.78;;;27.72;54.34
71970;BME280;59838;52.152;5.436;2023-05-22T06:44:10;101609.13;;;27.21;55.06
71970;BME280;59838;52.152;5.436;2023-05-22T06:46:38;101599.19;;;27.71;55.12
71970;BME280;59838;52.152;5.436;2023-05-22T06:49:04;101604.75;;;28.09;53.86
71970;BME280;59838;52.152;5.436;2023-05-22T06:51:31;101611.84;;;27.95;53.97
71970;BME280;59838;52.152;5.436;2023-05-22T06:53:57;101617.41;;;27.98;54.43
71970;BME280;59838;52.152;5.436;2023-05-22T06:56:24;101612.16;;;27.48;54.10
71970;BME280;59838;52.152;5.436;2023-05-22T06:58:50;101606.25;;;27.12;57.47
71970;BME280;59838;52.152;5.436;2023-05-22T07:01:17;101616.44;;;26.99;57.58
71970;BME280;59838;52.152;5.436;2023-05-22T07:03:44;101610.50;;;26.37;59.19
71970;BME280;59838;52.152;5.436;2023-05-22T07:06:10;101621.09;;;26.73;58.77
71970;BME280;59838;52.152;5.436;2023-05-22T07:08:37;101612.47;;;26.92;56.79
71970;BME280;59838;52.152;5.436;2023-05-22T07:11:04;101612.06;;;27.19;56.64
71970;BME280;59838;52.152;5.436;2023-05-22T07:13:32;101617.66;;;27.17;56.97
71970;BME280;59838;52.152;5.436;2023-05-22T07:15:59;101619.41;;;27.77;54.23
71970;BME280;59838;52.152;5.436;2023-05-22T07:18:26;101624.81;;;27.72;53.84
71970;BME280;59838;52.152;5.436;2023-05-22T07:20:52;101616.88;;;27.17;56.10
71970;BME280;59838;52.152;5.436;2023-05-22T07:23:18;101618.75;;;27.61;54.85
71970;BME280;59838;52.152;5.436;2023-05-22T07:25:45;101615.75;;;27.28;54.79
71970;BME280;59838;52.152;5.436;2023-05-22T07:28:11;101619.75;;;27.31;55.97
71970;BME280;59838;52.152;5.436;2023-05-22T07:30:38;101615.00;;;27.62;53.83
71970;BME280;59838;52.152;5.436;2023-05-22T07:33:08;101623.69;;;28.13;52.25
71970;BME280;59838;52.152;5.436;2023-05-22T07:35:35;101625.28;;;27.79;51.88
71970;BME280;59838;52.152;5.436;2023-05-22T07:38:01;101619.03;;;27.10;57.60
71970;BME280;59838;52.152;5.436;2023-05-22T07:40:29;101622.63;;;27.40;55.83
71970;BME280;59838;52.152;5.436;2023-05-22T07:42:56;101615.06;;;27.57;54.83
71970;BME280;59838;52.152;5.436;2023-05-22T07:45:22;101626.63;;;28.11;53.53
71970;BME280;59838;52.152;5.436;2023-05-22T07:47:49;101615.00;;;28.26;53.40
71970;BME280;59838;52.152;5.436;2023-05-22T07:50:16;101622.75;;;26.38;57.79
71970;BME280;59838;52.152;5.436;2023-05-22T07:52:43;101626.22;;;25.57;64.63
71970;BME280;59838;52.152;5.436;2023-05-22T07:55:10;101618.28;;;25.77;61.11
71970;BME280;59838;52.152;5.436;2023-05-22T07:57:37;101621.97;;;25.50;64.03
71970;BME280;59838;52.152;5.436;2023-05-22T08:00:04;101625.97;;;25.58;64.33
71970;BME280;59838;52.152;5.436;2023-05-22T08:02:40;101629.38;;;25.28;65.41
71970;BME280;59838;52.152;5.436;2023-05-22T08:05:07;101628.22;;;25.18;65.16
71970;BME280;59838;52.152;5.436;2023-05-22T08:07:34;101624.59;;;25.35;63.74
71970;BME280;59838;52.152;5.436;2023-05-22T08:10:05;101634.63;;;25.12;63.11
71970;BME280;59838;52.152;5.436;2023-05-22T08:12:32;101629.69;;;24.36;69.32
71970;BME280;59838;52.152;5.436;2023-05-22T08:14:58;101632.66;;;24.87;65.06
71970;BME280;59838;52.152;5.436;2023-05-22T08:17:25;101636.50;;;24.59;65.43
71970;BME280;59838;52.152;5.436;2023-05-22T08:19:51;101637.47;;;24.48;65.68
71970;BME280;59838;52.152;5.436;2023-05-22T08:22:18;101627.63;;;24.96;66.22
71970;BME280;59838;52.152;5.436;2023-05-22T08:24:44;101639.75;;;25.34;63.99
71970;BME280;59838;52.152;5.436;2023-05-22T08:27:11;101641.50;;;25.03;66.18
71970;BME280;59838;52.152;5.436;2023-05-22T08:29:37;101643.91;;;24.19;65.57
71970;BME280;59838;52.152;5.436;2023-05-22T08:32:04;101642.59;;;23.84;65.92
71970;BME280;59838;52.152;5.436;2023-05-22T08:34:30;101634.16;;;23.65;69.08
71970;BME280;59838;52.152;5.436;2023-05-22T08:36:58;101630.97;;;23.63;68.66
71970;BME280;59838;52.152;5.436;2023-05-22T08:39:25;101626.28;;;23.48;70.30
71970;BME280;59838;52.152;5.436;2023-05-22T08:41:51;101626.94;;;23.33;70.01
71970;BME280;59838;52.152;5.436;2023-05-22T08:44:18;101631.63;;;23.26;70.51
71970;BME280;59838;52.152;5.436;2023-05-22T08:46:45;101625.03;;;23.29;71.89
71970;BME280;59838;52.152;5.436;2023-05-22T08:49:12;101623.50;;;23.33;71.24
71970;BME280;59838;52.152;5.436;2023-05-22T08:51:40;101620.16;;;23.21;70.81
71970;BME280;59838;52.152;5.436;2023-05-22T08:54:08;101617.25;;;23.22;71.12
71970;BME280;59838;52.152;5.436;2023-05-22T08:56:35;101621.63;;;23.33;70.52
71970;BME280;59838;52.152;5.436;2023-05-22T08:59:11;101626.78;;;23.45;70.31
71970;BME280;59838;52.152;5.436;2023-05-22T09:01:37;101624.38;;;23.44;70.33
71970;BME280;59838;52.152;5.436;2023-05-22T09:04:04;101624.69;;;23.47;69.10
71970;BME280;59838;52.152;5.436;2023-05-22T09:06:31;101623.19;;;23.57;70.75
71970;BME280;59838;52.152;5.436;2023-05-22T09:08:58;101617.28;;;23.49;70.04
71970;BME280;59838;52.152;5.436;2023-05-22T09:11:25;101616.16;;;23.45;70.09
71970;BME280;59838;52.152;5.436;2023-05-22T09:13:51;101614.47;;;23.34;70.74
71970;BME280;59838;52.152;5.436;2023-05-22T09:16:18;101626.00;;;23.45;73.28
71970;BME280;59838;52.152;5.436;2023-05-22T09:18:45;101615.63;;;23.43;69.39
71970;BME280;59838;52.152;5.436;2023-05-22T09:21:12;101616.75;;;23.47;70.46
71970;BME280;59838;52.152;5.436;2023-05-22T09:23:59;101616.25;;;23.50;72.02
71970;BME280;59838;52.152;5.436;2023-05-22T09:26:27;101608.75;;;23.74;70.63
71970;BME280;59838;52.152;5.436;2023-05-22T09:28:58;101613.03;;;23.48;70.70
71970;BME280;59838;52.152;5.436;2023-05-22T09:31:27;101606.19;;;23.52;73.79
71970;BME280;59838;52.152;5.436;2023-05-22T09:33:54;101603.53;;;23.52;68.47
71970;BME280;59838;52.152;5.436;2023-05-22T09:36:29;101606.72;;;23.54;68.71
71970;BME280;59838;52.152;5.436;2023-05-22T09:38:59;101603.78;;;23.51;69.84
71970;BME280;59838;52.152;5.436;2023-05-22T09:41:27;101604.06;;;23.54;73.71
71970;BME280;59838;52.152;5.436;2023-05-22T09:43:55;101596.31;;;23.75;71.20
71970;BME280;59838;52.152;5.436;2023-05-22T09:46:23;101597.19;;;23.86;67.42
71970;BME280;59838;52.152;5.436;2023-05-22T09:48:53;101600.84;;;24.50;67.58
71970;BME280;59838;52.152;5.436;2023-05-22T09:51:23;101590.38;;;24.86;66.62
71970;BME280;59838;52.152;5.436;2023-05-22T09:53:55;101594.06;;;24.74;64.76
71970;BME280;59838;52.152;5.436;2023-05-22T09:56:25;101594.81;;;24.22;62.87
71970;BME280;59838;52.152;5.436;2023-05-22T09:59:07;101587.91;;;24.63;63.81
71970;BME280;59838;52.152;5.436;2023-05-22T10:01:36;101584.81;;;24.82;62.76
71970;BME280;59838;52.152;5.436;2023-05-22T10:04:04;101596.44;;;24.71;64.66
71970;BME280;59838;52.152;5.436;2023-05-22T10:06:31;101590.34;;;24.75;61.80
71970;BME280;59838;52.152;5.436;2023-05-22T10:09:04;101588.50;;;24.81;62.94
71970;BME280;59838;52.152;5.436;2023-05-22T10:11:33;101592.69;;;24.61;61.96
71970;BME280;59838;52.152;5.436;2023-05-22T10:14:01;101591.78;;;25.04;61.36
71970;BME280;59838;52.152;5.436;2023-05-22T10:16:29;101590.03;;;25.55;61.55
71970;BME280;59838;52.152;5.436;2023-05-22T10:18:56;101594.03;;;25.68;60.79
71970;BME280;59838;52.152;5.436;2023-05-22T10:21:24;101597.72;;;25.36;59.63
71970;BME280;59838;52.152;5.436;2023-05-22T10:23:51;101588.09;;;25.20;61.58
71970;BME280;59838;52.152;5.436;2023-05-22T10:26:18;101596.53;;;24.91;59.81
71970;BME280;59838;52.152;5.436;2023-05-22T10:28:51;101592.09;;;25.23;59.58
71970;BME280;59838;52.152;5.436;2023-05-22T10:31:26;101588.16;;;25.51;59.34
71970;BME280;59838;52.152;5.436;2023-05-22T10:34:02;101585.25;;;25.73;59.79
71970;BME280;59838;52.152;5.436;2023-05-22T10:36:50;101583.38;;;26.20;55.85
71970;BME280;59838;52.152;5.436;2023-05-22T10:42:16;101580.63;;;26.51;54.17
71970;BME280;59838;52.152;5.436;2023-05-22T10:44:43;101581.41;;;26.61;54.61
71970;BME280;59838;52.152;5.436;2023-05-22T10:47:09;101569.72;;;26.47;54.53
71970;BME280;59838;52.152;5.436;2023-05-22T10:49:44;101579.22;;;26.74;52.99
71970;BME280;59838;52.152;5.436;2023-05-22T10:52:12;101575.28;;;26.56;52.64
71970;BME280;59838;52.152;5.436;2023-05-22T10:54:44;101573.19;;;26.48;53.25
71970;BME280;59838;52.152;5.436;2023-05-22T10:57:15;101572.59;;;26.56;53.88
71970;BME280;59838;52.152;5.436;2023-05-22T10:59:43;101575.81;;;26.53;58.20
71970;BME280;59838;52.152;5.436;2023-05-22T11:02:24;101578.22;;;26.54;57.28
71970;BME280;59838;52.152;5.436;2023-05-22T11:07:46;101569.81;;;26.16;55.79
71970;BME280;59838;52.152;5.436;2023-05-22T11:10:13;101578.06;;;26.20;56.77
71970;BME280;59838;52.152;5.436;2023-05-22T11:12:39;101568.16;;;26.36;59.71
71970;BME280;59838;52.152;5.436;2023-05-22T11:15:09;101578.75;;;26.67;54.55
71970;BME280;59838;52.152;5.436;2023-05-22T11:17:46;101566.59;;;26.95;53.49
71970;BME280;59838;52.152;5.436;2023-05-22T11:20:21;101567.84;;;27.08;51.72
71970;BME280;59838;52.152;5.436;2023-05-22T11:22:58;101568.09;;;27.11;53.53
71970;BME280;59838;52.152;5.436;2023-05-22T11:25:26;101562.56;;;27.42;53.70
71970;BME280;59838;52.152;5.436;2023-05-22T11:27:53;101551.22;;;27.21;54.60
71970;BME280;59838;52.152;5.436;2023-05-22T11:30:25;101559.44;;;27.35;50.66
71970;BME280;59838;52.152;5.436;2023-05-22T11:32:51;101552.78;;;27.27;52.28
71970;BME280;59838;52.152;5.436;2023-05-22T11:35:20;101549.41;;;27.16;50.09
71970;BME280;59838;52.152;5.436;2023-05-22T11:37:48;101555.88;;;27.00;48.83
71970;BME280;59838;52.152;5.436;2023-05-22T11:40:16;101549.50;;;27.01;51.44
71970;BME280;59838;52.152;5.436;2023-05-22T11:42:43;101553.56;;;26.88;51.80
71970;BME280;59838;52.152;5.436;2023-05-22T11:45:10;101543.31;;;26.51;53.79
71970;BME280;59838;52.152;5.436;2023-05-22T11:47:37;101546.91;;;26.91;52.59
71970;BME280;59838;52.152;5.436;2023-05-22T11:50:04;101546.94;;;27.30;53.78
71970;BME280;59838;52.152;5.436;2023-05-22T11:52:33;101537.31;;;27.34;49.57
71970;BME280;59838;52.152;5.436;2023-05-22T11:55:00;101540.84;;;27.59;48.93
71970;BME280;59838;52.152;5.436;2023-05-22T11:57:27;101538.91;;;27.65;50.54
71970;BME280;59838;52.152;5.436;2023-05-22T11:59:53;101548.28;;;27.62;50.03
71970;BME280;59838;52.152;5.436;2023-05-22T12:02:20;101544.72;;;27.72;50.57
71970;BME280;59838;52.152;5.436;2023-05-22T12:04:47;101540.06;;;27.83;52.54
71970;BME280;59838;52.152;5.436;2023-05-22T12:07:13;101540.88;;;28.13;50.11
71970;BME280;59838;52.152;5.436;2023-05-22T12:09:40;101542.97;;;28.40;49.66
71970;BME280;59838;52.152;5.436;2023-05-22T12:12:08;101547.28;;;28.36;50.17
71970;BME280;59838;52.152;5.436;2023-05-22T12:14:35;101540.88;;;28.61;50.88
71970;BME280;59838;52.152;5.436;2023-05-22T12:17:02;101544.09;;;28.58;50.82
71970;BME280;59838;52.152;5.436;2023-05-22T12:19:31;101541.44;;;28.58;50.27
71970;BME280;59838;52.152;5.436;2023-05-22T12:21:58;101553.59;;;28.45;48.89
71970;BME280;59838;52.152;5.436;2023-05-22T12:24:24;101543.53;;;28.37;47.60
71970;BME280;59838;52.152;5.436;2023-05-22T12:26:52;101556.22;;;28.26;46.81
71970;BME280;59838;52.152;5.436;2023-05-22T12:29:21;101546.84;;;28.29;47.67
71970;BME280;59838;52.152;5.436;2023-05-22T12:31:48;101547.22;;;28.41;48.11
71970;BME280;59838;52.152;5.436;2023-05-22T12:34:16;101549.81;;;28.27;46.04
71970;BME280;59838;52.152;5.436;2023-05-22T12:36:45;101553.72;;;28.11;47.97
71970;BME280;59838;52.152;5.436;2023-05-22T12:39:17;101543.59;;;28.07;47.75
71970;BME280;59838;52.152;5.436;2023-05-22T12:41:44;101543.03;;;27.81;48.89
71970;BME280;59838;52.152;5.436;2023-05-22T12:44:15;101537.94;;;27.56;49.39
71970;BME280;59838;52.152;5.436;2023-05-22T12:46:42;101540.38;;;27.47;49.40
71970;BME280;59838;52.152;5.436;2023-05-22T12:49:09;101533.78;;;28.03;49.80
71970;BME280;59838;52.152;5.436;2023-05-22T12:51:36;101534.84;;;27.72;51.02
71970;BME280;59838;52.152;5.436;2023-05-22T12:54:03;101543.56;;;27.83;50.47
71970;BME280;59838;52.152;5.436;2023-05-22T12:56:30;101540.38;;;27.81;50.99
71970;BME280;59838;52.152;5.436;2023-05-22T12:58:57;101550.06;;;27.72;54.26
71970;BME280;59838;52.152;5.436;2023-05-22T13:01:24;101541.72;;;27.79;53.17
71970;BME280;59838;52.152;5.436;2023-05-22T13:03:52;101553.59;;;27.97;51.38
71970;BME280;59838;52.152;5.436;2023-05-22T13:06:19;101557.16;;;27.13;53.78